createdAt,value
2022-12-16T00:01:13.447Z,100470.34
2022-12-16T00:03:41.065Z,100483.69
2022-12-16T00:06:09.007Z,100492.88
2022-12-16T00:08:37.821Z,100485.91
2022-12-16T00:11:04.748Z,100489.91
2022-12-16T00:13:32.353Z,100489.75
2022-12-16T00:15:59.093Z,100489.63
2022-12-16T00:18:25.775Z,100491.09
2022-12-16T00:20:54.789Z,100497.03
2022-12-16T00:23:22.557Z,100495.25
2022-12-16T00:25:49.735Z,100500.28
2022-12-16T00:28:18.747Z,100500.28
2022-12-16T00:30:45.499Z,100496.13
2022-12-16T00:33:13.009Z,100508.56
2022-12-16T00:35:42.993Z,100511.81
2022-12-16T00:38:12.831Z,100505.00
2022-12-16T00:40:39.313Z,100512.84
2022-12-16T00:43:05.789Z,100521.13
2022-12-16T00:45:32.248Z,100526.03
2022-12-16T00:47:58.993Z,100524.25
2022-12-16T00:50:25.632Z,100530.03
2022-12-16T00:52:52.064Z,100523.00
2022-12-16T00:55:19.035Z,100519.59
2022-12-16T00:57:45.621Z,100526.28
2022-12-16T01:00:13.843Z,100516.78
2022-12-16T01:02:41.278Z,100523.28
2022-12-16T01:05:08.853Z,100521.66
2022-12-16T01:07:35.510Z,100521.50
2022-12-16T01:10:02.017Z,100523.13
2022-12-16T01:12:28.496Z,100522.25
2022-12-16T01:14:54.946Z,100525.50
2022-12-16T01:17:21.369Z,100522.69
2022-12-16T01:19:47.804Z,100522.69
2022-12-16T01:22:14.299Z,100525.19
2022-12-16T01:24:40.739Z,100527.72
2022-12-16T01:27:07.160Z,100525.19
2022-12-16T01:29:34.787Z,100525.91
2022-12-16T01:32:01.276Z,100531.88
2022-12-16T01:34:27.881Z,100530.94
2022-12-16T01:36:54.313Z,100529.34
2022-12-16T01:39:22.036Z,100530.06
2022-12-16T01:41:48.466Z,100530.47
2022-12-16T01:44:21.419Z,100530.75
2022-12-16T01:46:54.120Z,100533.34
2022-12-16T01:49:26.086Z,100532.88
2022-12-16T01:51:55.442Z,100530.53
2022-12-16T01:54:25.235Z,100528.00
2022-12-16T01:56:55.412Z,100528.75
2022-12-16T01:59:22.719Z,100525.19
2022-12-16T02:01:49.248Z,100517.63
2022-12-16T02:04:15.779Z,100526.97
2022-12-16T02:06:42.197Z,100524.59
2022-12-16T02:09:10.873Z,100517.94
2022-12-16T02:12:04.825Z,100517.03
2022-12-16T02:14:54.459Z,100512.88
2022-12-16T02:17:45.715Z,100508.59
2022-12-16T02:20:22.521Z,100516.88
2022-12-16T02:23:26.590Z,100510.94
2022-12-16T02:26:09.730Z,100510.06
2022-12-16T02:29:07.746Z,100505.03
2022-12-16T02:31:53.944Z,100505.91
2022-12-16T02:34:29.251Z,100505.03
2022-12-16T02:37:28.149Z,100509.00
2022-12-16T02:40:03.664Z,100514.94
2022-12-16T02:42:47.764Z,100510.44
2022-12-16T02:45:19.931Z,100512.06
2022-12-16T02:47:46.606Z,100503.47
2022-12-16T02:50:27.559Z,100513.41
2022-12-16T02:52:54.970Z,100504.94
2022-12-16T02:55:25.641Z,100512.50
2022-12-16T02:58:12.839Z,100504.78
2022-12-16T03:00:48.170Z,100511.72
2022-12-16T03:03:20.860Z,100513.16
2022-12-16T03:05:48.623Z,100513.16
2022-12-16T03:08:20.433Z,100516.41
2022-12-16T03:10:54.609Z,100513.91
2022-12-16T03:13:22.680Z,100518.03
2022-12-16T03:15:52.044Z,100510.50
2022-12-16T03:18:19.018Z,100512.13
2022-12-16T03:20:59.570Z,100510.34
2022-12-16T03:23:31.653Z,100505.28
2022-12-16T03:26:04.691Z,100510.19
2022-12-16T03:28:49.618Z,100509.28
2022-12-16T03:31:23.915Z,100512.06
2022-12-16T03:34:07.331Z,100512.31
2022-12-16T03:36:35.093Z,100512.72
2022-12-16T03:39:03.642Z,100516.72
2022-12-16T03:41:31.376Z,100513.44
2022-12-16T03:43:57.842Z,100517.75
2022-12-16T03:46:24.363Z,100522.94
2022-12-16T03:48:51.931Z,100530.19
2022-12-16T03:51:19.597Z,100522.47
2022-12-16T03:53:46.495Z,100523.06
2022-12-16T03:56:13.462Z,100516.19
2022-12-16T03:58:40.386Z,100523.06
2022-12-16T04:01:09.431Z,100523.06
2022-12-16T04:03:39.496Z,100521.59
2022-12-16T04:06:06.546Z,100520.84
2022-12-16T04:08:32.979Z,100521.75
2022-12-16T04:11:17.924Z,100524.41
2022-12-16T04:14:02.991Z,100519.53
2022-12-16T04:16:48.549Z,100524.25
2022-12-16T04:19:45.194Z,100515.25
2022-12-16T04:22:45.591Z,100527.09
2022-12-16T04:25:23.598Z,100524.25
2022-12-16T04:27:50.121Z,100533.28
2022-12-16T04:30:21.940Z,100531.66
2022-12-16T04:33:17.276Z,100532.22
2022-12-16T04:36:02.285Z,100540.47
2022-12-16T04:38:47.833Z,100541.22
2022-12-16T04:41:32.833Z,100537.66
2022-12-16T04:44:18.096Z,100542.53
2022-12-16T04:47:03.269Z,100543.41
2022-12-16T04:49:48.215Z,100551.38
2022-12-16T04:52:33.171Z,100557.16
2022-12-16T04:55:18.311Z,100551.06
2022-12-16T04:58:07.351Z,100553.59
2022-12-16T05:00:52.368Z,100557.88
2022-12-16T05:03:37.210Z,100552.13
2022-12-16T05:06:22.333Z,100554.63
2022-12-16T05:09:07.414Z,100555.22
2022-12-16T05:11:52.278Z,100561.69
2022-12-16T05:14:37.308Z,100572.63
2022-12-16T05:17:22.309Z,100576.63
2022-12-16T05:20:07.407Z,100567.28
2022-12-16T05:22:52.478Z,100572.31
2022-12-16T05:25:37.568Z,100571.56
2022-12-16T05:28:22.640Z,100570.69
2022-12-16T05:31:07.700Z,100580.59
2022-12-16T05:33:52.712Z,100583.28
2022-12-16T05:36:37.661Z,100587.41
2022-12-16T05:39:22.733Z,100594.22
2022-12-16T05:42:07.648Z,100606.09
2022-12-16T05:44:52.637Z,100596.75
2022-12-16T05:47:38.124Z,100607.53
2022-12-16T05:50:24.281Z,100614.22
2022-12-16T05:53:11.382Z,100623.38
2022-12-16T05:55:56.439Z,100614.78
2022-12-16T05:58:41.633Z,100613.00
2022-12-16T06:01:26.682Z,100618.75
2022-12-16T06:04:17.111Z,100626.16
2022-12-16T06:07:02.630Z,100625.25
2022-12-16T06:09:53.156Z,100632.06
2022-12-16T06:12:41.214Z,100633.84
2022-12-16T06:15:26.303Z,100635.63
2022-12-16T06:18:11.408Z,100639.22
2022-12-16T06:20:56.272Z,100641.31
2022-12-16T06:23:41.365Z,100643.31
2022-12-16T06:26:26.825Z,100643.47
2022-12-16T06:29:11.955Z,100640.22
2022-12-16T06:31:57.139Z,100649.56
2022-12-16T06:34:42.326Z,100659.22
2022-12-16T06:37:27.438Z,100661.31
2022-12-16T06:40:12.077Z,100666.72
2022-12-16T06:43:00.576Z,100665.41
2022-12-16T06:45:45.695Z,100675.22
2022-12-16T06:48:30.924Z,100678.25
2022-12-16T06:51:16.097Z,100681.09
2022-12-16T06:54:01.096Z,100688.09
2022-12-16T06:56:53.415Z,100689.16
2022-12-16T06:59:38.436Z,100693.97
2022-12-16T07:02:23.693Z,100692.66
2022-12-16T07:05:08.821Z,100689.88
2022-12-16T07:07:53.903Z,100696.34
2022-12-16T07:10:38.964Z,100699.50
2022-12-16T07:13:23.987Z,100694.78
2022-12-16T07:16:09.024Z,100710.41
2022-12-16T07:18:54.063Z,100703.16
2022-12-16T07:21:39.034Z,100715.34
2022-12-16T07:24:23.949Z,100714.78
2022-12-16T07:27:08.903Z,100721.22
2022-12-16T07:29:53.966Z,100731.03
2022-12-16T07:32:39.032Z,100734.03
2022-12-16T07:35:23.943Z,100743.88
2022-12-16T07:38:09.031Z,100747.63
2022-12-16T07:40:54.052Z,100755.66
2022-12-16T07:43:40.407Z,100763.16
2022-12-16T07:46:25.561Z,100763.78
2022-12-16T07:49:10.686Z,100772.75
2022-12-16T07:51:55.885Z,100774.28
2022-12-16T07:54:40.894Z,100774.94
2022-12-16T07:57:26.098Z,100774.66
2022-12-16T08:00:11.198Z,100778.56
2022-12-16T08:02:56.316Z,100779.19
2022-12-16T08:05:41.451Z,100786.63
2022-12-16T08:08:26.432Z,100780.59
2022-12-16T08:11:11.434Z,100793.13
2022-12-16T08:13:56.369Z,100788.56
2022-12-16T08:16:42.030Z,100800.50
2022-12-16T08:19:27.007Z,100805.28
2022-12-16T08:22:12.184Z,100810.06
2022-12-16T08:24:57.373Z,100807.44
2022-12-16T08:27:42.412Z,100814.75
2022-12-16T08:30:28.178Z,100813.03
2022-12-16T08:33:18.726Z,100825.53
2022-12-16T08:36:04.702Z,100828.69
2022-12-16T08:38:49.797Z,100831.97
2022-12-16T08:41:34.846Z,100833.38
2022-12-16T08:44:19.918Z,100835.75
2022-12-16T08:47:05.002Z,100845.47
2022-12-16T08:49:51.103Z,100825.69
2022-12-16T08:52:38.486Z,100834.78
2022-12-16T08:55:27.785Z,100835.09
2022-12-16T08:58:14.685Z,100837.19
2022-12-16T09:01:06.260Z,100836.91
2022-12-16T09:03:52.473Z,100846.91
2022-12-16T09:06:40.663Z,100844.09
2022-12-16T09:09:26.667Z,100847.09
2022-12-16T09:12:11.816Z,100854.53
2022-12-16T09:15:12.264Z,100848.88
2022-12-16T09:17:57.256Z,100854.88
2022-12-16T09:20:42.380Z,100849.81
2022-12-16T09:23:27.328Z,100855.91
2022-12-16T09:26:12.780Z,100854.59
2022-12-16T09:28:57.843Z,100852.94
2022-12-16T09:31:43.032Z,100862.03
2022-12-16T09:34:28.050Z,100861.75
2022-12-16T09:37:13.168Z,100861.16
2022-12-16T09:39:58.221Z,100867.13
2022-12-16T09:42:57.216Z,100870.09
2022-12-16T09:45:52.281Z,100869.09
2022-12-16T09:49:01.204Z,100868.91
2022-12-16T09:51:47.796Z,100865.34
2022-12-16T09:54:34.873Z,100869.78
2022-12-16T09:57:21.007Z,100864.88
2022-12-16T10:00:13.526Z,100871.44
2022-12-16T10:03:03.379Z,100869.06
2022-12-16T10:06:35.672Z,100878.13
2022-12-16T10:09:49.049Z,100882.28
2022-12-16T10:13:04.221Z,100873.34
2022-12-16T10:16:03.860Z,100872.72
2022-12-16T10:18:59.652Z,100874.06
2022-12-16T10:21:53.096Z,100882.25
2022-12-16T10:25:24.790Z,100877.75
2022-12-16T10:28:14.703Z,100879.84
2022-12-16T10:30:59.884Z,100882.19
2022-12-16T10:33:47.395Z,100881.00
2022-12-16T10:36:40.042Z,100874.09
2022-12-16T10:40:03.522Z,100876.75
2022-12-16T10:42:50.656Z,100878.88
2022-12-16T10:45:48.836Z,100882.09
2022-12-16T10:48:36.930Z,100876.41
2022-12-16T10:51:30.547Z,100882.34
2022-12-16T10:54:24.609Z,100873.69
2022-12-16T10:57:24.848Z,100879.63
2022-12-16T11:00:09.969Z,100877.66
2022-12-16T11:02:55.207Z,100874.09
2022-12-16T11:05:41.505Z,100880.16
2022-12-16T11:08:41.958Z,100874.72
2022-12-16T11:11:32.436Z,100864.84
2022-12-16T11:14:38.514Z,100880.66
2022-12-16T11:17:38.312Z,100881.22
2022-12-16T11:20:42.148Z,100884.78
2022-12-16T11:23:42.501Z,100883.56
2022-12-16T11:26:36.760Z,100875.19
2022-12-16T11:29:30.083Z,100882.19
2022-12-16T11:32:16.614Z,100881.84
2022-12-16T11:35:04.403Z,100888.56
2022-12-16T11:37:50.889Z,100884.50
2022-12-16T11:40:36.973Z,100890.03
2022-12-16T11:43:23.215Z,100893.34
2022-12-16T11:46:10.189Z,100893.34
2022-12-16T11:49:02.817Z,100902.59
2022-12-16T11:51:50.420Z,100898.41
2022-12-16T11:54:41.859Z,100904.53
2022-12-16T11:57:38.085Z,100903.00
2022-12-16T12:00:24.159Z,100899.22
2022-12-16T12:03:35.669Z,100904.88
2022-12-16T12:06:31.688Z,100909.34
2022-12-16T12:09:28.968Z,100915.31
2022-12-16T12:12:21.621Z,100912.56
2022-12-16T12:15:11.930Z,100906.59
2022-12-16T12:18:09.332Z,100918.69
2022-12-16T12:21:15.441Z,100909.28
2022-12-16T12:24:28.543Z,100916.69
2022-12-16T12:27:22.374Z,100915.78
2022-12-16T12:30:19.636Z,100915.53
2022-12-16T12:33:32.308Z,100918.19
2022-12-16T12:36:53.661Z,100915.91
2022-12-16T12:40:11.087Z,100922.78
2022-12-16T12:43:04.741Z,100926.53
2022-12-16T12:45:56.257Z,100922.31
2022-12-16T12:48:47.522Z,100926.91
2022-12-16T12:51:43.815Z,100922.22
2022-12-16T12:55:03.342Z,100935.72
2022-12-16T12:57:49.337Z,100933.03
2022-12-16T13:00:37.914Z,100943.00
2022-12-16T13:03:40.903Z,100942.38
2022-12-16T13:06:25.888Z,100950.91
2022-12-16T13:09:10.932Z,100944.28
2022-12-16T13:11:57.354Z,100944.28
2022-12-16T13:14:51.814Z,100946.34
2022-12-16T13:17:39.390Z,100953.09
2022-12-16T13:20:53.234Z,100959.81
2022-12-16T13:23:51.262Z,100962.38
2022-12-16T13:26:47.551Z,100966.69
2022-12-16T13:29:48.402Z,100969.50
2022-12-16T13:32:44.208Z,100974.13
2022-12-16T13:35:29.253Z,100975.28
2022-12-16T13:38:35.600Z,100978.72
2022-12-16T13:41:27.964Z,100977.69
2022-12-16T13:44:15.145Z,100981.25
2022-12-16T13:47:08.296Z,100992.06
2022-12-16T13:49:56.470Z,100986.72
2022-12-16T13:52:59.825Z,100998.31
2022-12-16T13:55:52.138Z,100998.31
2022-12-16T13:58:44.796Z,100995.75
2022-12-16T14:01:35.307Z,100999.06
2022-12-16T14:04:20.359Z,101006.69
2022-12-16T14:07:05.199Z,101008.47
2022-12-16T14:09:58.252Z,101016.25
2022-12-16T14:13:15.615Z,101022.22
2022-12-16T14:16:37.687Z,101015.63
2022-12-16T14:19:36.748Z,101023.88
2022-12-16T14:22:37.095Z,101029.72
2022-12-16T14:25:42.158Z,101033.16
2022-12-16T14:28:50.794Z,101028.81
2022-12-16T14:31:40.025Z,101038.25
2022-12-16T14:34:35.197Z,101032.41
2022-12-16T14:37:30.298Z,101035.97
2022-12-16T14:40:15.330Z,101045.25
2022-12-16T14:43:00.787Z,101043.47
2022-12-16T14:45:57.884Z,101045.13
2022-12-16T14:48:52.255Z,101051.84
2022-12-16T14:51:44.444Z,101055.28
2022-12-16T14:54:55.187Z,101055.28
2022-12-16T14:57:45.846Z,101056.03
2022-12-16T15:00:33.646Z,101060.25
2022-12-16T15:03:37.557Z,101064.69
2022-12-16T15:06:25.775Z,101070.53
2022-12-16T15:09:22.072Z,101078.19
2022-12-16T15:12:10.521Z,101080.84
2022-12-16T15:14:57.586Z,101071.31
2022-12-16T15:17:48.701Z,101076.41
2022-12-16T15:20:45.529Z,101084.16
2022-12-16T15:23:37.548Z,101082.50
2022-12-16T15:26:24.614Z,101095.22
2022-12-16T15:29:09.513Z,101086.13
2022-12-16T15:32:02.963Z,101093.88
2022-12-16T15:35:06.840Z,101099.72
2022-12-16T15:38:04.263Z,101112.28
2022-12-16T15:40:50.718Z,101106.47
2022-12-16T15:43:40.160Z,101114.81
2022-12-16T15:46:25.429Z,101120.06
2022-12-16T15:49:10.445Z,101126.06
2022-12-16T15:52:30.525Z,101122.00
2022-12-16T15:55:15.625Z,101126.31
2022-12-16T15:58:13.807Z,101125.31
2022-12-16T16:00:58.943Z,101138.03
2022-12-16T16:03:47.613Z,101144.00
2022-12-16T16:06:36.613Z,101144.88
2022-12-16T16:09:44.489Z,101145.66
2022-12-16T16:12:30.581Z,101159.25
2022-12-16T16:15:15.908Z,101160.16
2022-12-16T16:18:01.491Z,101160.91
2022-12-16T16:20:46.563Z,101165.25
2022-12-16T16:23:32.500Z,101163.47
2022-12-16T16:26:17.736Z,101165.25
2022-12-16T16:29:02.823Z,101165.88
2022-12-16T16:31:47.851Z,101168.25
2022-12-16T16:34:32.982Z,101174.09
2022-12-16T16:37:18.127Z,101176.47
2022-12-16T16:40:03.285Z,101172.44
2022-12-16T16:42:48.382Z,101174.84
2022-12-16T16:45:33.973Z,101183.22
2022-12-16T16:48:45.317Z,101179.03
2022-12-16T16:51:30.303Z,101187.41
2022-12-16T16:54:15.295Z,101188.31
2022-12-16T16:57:00.274Z,101191.63
2022-12-16T16:59:45.303Z,101195.06
2022-12-16T17:02:40.822Z,101194.28
2022-12-16T17:05:27.615Z,101190.84
2022-12-16T17:08:12.732Z,101198.47
2022-12-16T17:10:57.849Z,101198.47
2022-12-16T17:13:42.808Z,101200.13
2022-12-16T17:16:32.167Z,101195.19
2022-12-16T17:19:17.161Z,101208.66
2022-12-16T17:22:02.215Z,101208.66
2022-12-16T17:24:51.423Z,101220.34
2022-12-16T17:27:40.984Z,101221.25
2022-12-16T17:30:32.660Z,101212.56
2022-12-16T17:33:19.340Z,101217.94
2022-12-16T17:36:07.289Z,101217.03
2022-12-16T17:38:56.486Z,101228.13
2022-12-16T17:41:41.553Z,101229.75
2022-12-16T17:44:43.303Z,101234.09
2022-12-16T17:47:28.536Z,101228.25
2022-12-16T17:50:13.581Z,101232.59
2022-12-16T17:52:58.539Z,101239.47
2022-12-16T17:55:43.543Z,101235.88
2022-12-16T17:58:30.853Z,101235.13
2022-12-16T18:01:23.880Z,101238.44
2022-12-16T18:04:09.600Z,101246.06
2022-12-16T18:07:02.283Z,101247.09
2022-12-16T18:09:47.283Z,101254.00
2022-12-16T18:12:32.425Z,101257.44
2022-12-16T18:15:17.448Z,101257.28
2022-12-16T18:18:02.156Z,101253.84
2022-12-16T18:20:47.299Z,101256.56
2022-12-16T18:23:32.595Z,101256.22
2022-12-16T18:26:19.853Z,101260.44
2022-12-16T18:29:04.754Z,101263.72
2022-12-16T18:31:50.002Z,101258.63
2022-12-16T18:34:35.239Z,101261.94
2022-12-16T18:37:20.211Z,101267.03
2022-12-16T18:40:05.240Z,101262.06
2022-12-16T18:42:50.197Z,101269.44
2022-12-16T18:45:35.210Z,101270.47
2022-12-16T18:48:20.156Z,101275.13
2022-12-16T18:51:14.815Z,101281.88
2022-12-16T18:53:59.784Z,101282.91
2022-12-16T18:56:45.077Z,101286.34
2022-12-16T18:59:30.146Z,101287.09
2022-12-16T19:02:15.789Z,101291.28
2022-12-16T19:05:01.030Z,101288.00
2022-12-16T19:07:50.790Z,101281.88
2022-12-16T19:10:35.735Z,101286.34
2022-12-16T19:13:20.930Z,101293.22
2022-12-16T19:16:16.427Z,101302.50
2022-12-16T19:19:01.512Z,101295.63
2022-12-16T19:21:51.806Z,101299.94
2022-12-16T19:24:52.063Z,101301.00
2022-12-16T19:27:37.211Z,101310.41
2022-12-16T19:30:22.835Z,101312.19
2022-12-16T19:36:15.167Z,101320.59
2022-12-16T19:39:00.057Z,101322.38
2022-12-16T19:41:45.228Z,101323.28
2022-12-16T19:44:30.217Z,101331.22
2022-12-16T19:47:15.349Z,101341.38
2022-12-16T19:50:00.261Z,101339.88
2022-12-16T19:52:45.176Z,101335.69
2022-12-16T19:55:30.164Z,101340.91
2022-12-16T19:58:15.390Z,101344.34
2022-12-16T20:01:00.435Z,101354.69
2022-12-16T20:03:46.090Z,101350.47
2022-12-16T20:06:31.831Z,101358.25
2022-12-16T20:09:16.888Z,101357.38
2022-12-16T20:12:02.038Z,101354.06
2022-12-16T20:14:46.972Z,101362.72
2022-12-16T20:17:32.191Z,101357.66
2022-12-16T20:20:17.285Z,101362.59
2022-12-16T20:23:02.364Z,101360.94
2022-12-16T20:25:47.464Z,101368.44
2022-12-16T20:28:32.545Z,101370.84
2022-12-16T20:31:21.614Z,101375.03
2022-12-16T20:34:13.849Z,101367.25
2022-12-16T20:36:58.921Z,101366.50
2022-12-16T20:42:48.895Z,101383.41
2022-12-16T20:45:34.472Z,101389.41
2022-12-16T20:48:20.037Z,101388.66
2022-12-16T20:51:17.622Z,101394.63
2022-12-16T20:54:07.659Z,101406.47
2022-12-16T20:56:52.720Z,101403.91
2022-12-16T20:59:38.157Z,101407.34
2022-12-16T21:02:25.908Z,101409.00
2022-12-16T21:05:13.002Z,101412.59
2022-12-16T21:07:58.160Z,101411.69
2022-12-16T21:10:43.118Z,101421.13
2022-12-16T21:13:30.816Z,101432.19
2022-12-16T21:14:28.344Z,101315.50
2022-12-16T21:16:17.029Z,101422.75
2022-12-16T21:19:02.153Z,101423.66
2022-12-16T21:21:47.734Z,101426.34
2022-12-16T21:24:32.648Z,101429.94
2022-12-16T21:27:17.711Z,101435.00
2022-12-16T21:30:02.713Z,101438.50
2022-12-16T21:32:47.774Z,101442.81
2022-12-16T21:35:32.843Z,101447.75
2022-12-16T21:38:18.052Z,101455.22
2022-12-16T21:41:10.032Z,101452.81
2022-12-16T21:43:55.112Z,101454.47
2022-12-16T21:46:41.411Z,101457.63
2022-12-16T21:49:26.404Z,101467.81
2022-12-16T21:52:11.573Z,101464.50
2022-12-16T21:54:56.647Z,101466.16
2022-12-16T21:57:41.852Z,101477.09
2022-12-16T22:00:27.269Z,101483.81
2022-12-16T22:03:14.457Z,101487.25
2022-12-16T22:05:59.483Z,101491.47
2022-12-16T22:08:44.424Z,101492.50
2022-12-16T22:11:30.629Z,101500.88
2022-12-16T22:14:15.510Z,101497.44
2022-12-16T22:17:00.687Z,101501.63
2022-12-16T22:19:45.745Z,101502.53
2022-12-16T22:22:30.893Z,101495.78
2022-12-16T22:25:15.884Z,101505.81
2022-12-16T22:28:00.939Z,101505.06
2022-12-16T22:30:46.123Z,101505.06
2022-12-16T22:33:31.290Z,101517.78
2022-12-16T22:36:20.456Z,101509.41
2022-12-16T22:36:21.216Z,101378.31
2022-12-16T22:39:05.582Z,101504.66
2022-12-16T22:42:04.229Z,101507.00
2022-12-16T22:44:49.409Z,101508.09
2022-12-16T22:47:34.591Z,101501.03
2022-12-16T22:50:19.820Z,101505.97
2022-12-16T22:53:04.700Z,101505.97
2022-12-16T22:55:49.852Z,101510.31
2022-12-16T22:58:35.431Z,101510.31
2022-12-16T23:01:20.599Z,101518.69
2022-12-16T23:04:05.776Z,101517.03
2022-12-16T23:06:51.934Z,101512.09
2022-12-16T23:09:37.129Z,101525.00
2022-12-16T23:12:22.667Z,101520.50
2022-12-16T23:15:07.886Z,101529.78
2022-12-16T23:17:52.940Z,101530.66
2022-12-16T23:20:51.924Z,101519.59
2022-12-16T23:23:37.244Z,101523.03
2022-12-16T23:26:22.994Z,101531.56
2022-12-16T23:29:11.640Z,101532.47
2022-12-16T23:31:57.657Z,101528.25
2022-12-16T23:34:45.931Z,101538.16
2022-12-16T23:37:31.408Z,101538.91
2022-12-16T23:40:16.397Z,101541.59
2022-12-16T23:43:01.252Z,101539.94
2022-12-16T23:45:46.347Z,101542.63
2022-12-16T23:48:31.392Z,101539.06
2022-12-16T23:51:16.440Z,101544.13
2022-12-16T23:54:01.483Z,101543.38
2022-12-16T23:56:46.524Z,101540.09
2022-12-16T23:59:31.603Z,101540.84
